sensor_id;sensor_type;location;lat;lon;timestamp;P1;durP1;ratioP1;P2;durP2;ratioP2
53521;SDS011;39398;48.382;9.802;2023-07-31T00:00:15;2.13;;;1.60;;
53521;SDS011;39398;48.382;9.802;2023-07-31T00:05:19;3.10;;;1.60;;
53521;SDS011;39398;48.382;9.802;2023-07-31T00:10:20;3.08;;;1.73;;
53521;SDS011;39398;48.382;9.802;2023-07-31T00:15:24;3.58;;;1.77;;
53521;SDS011;39398;48.382;9.802;2023-07-31T00:20:27;3.45;;;1.92;;
53521;SDS011;39398;48.382;9.802;2023-07-31T00:25:28;3.67;;;1.45;;
53521;SDS011;39398;48.382;9.802;2023-07-31T00:30:32;4.72;;;2.13;;
53521;SDS011;39398;48.382;9.802;2023-07-31T00:35:38;4.10;;;1.55;;
53521;SDS011;39398;48.382;9.802;2023-07-31T00:40:40;4.10;;;1.98;;
53521;SDS011;39398;48.382;9.802;2023-07-31T00:45:41;3.25;;;1.75;;
53521;SDS011;39398;48.382;9.802;2023-07-31T00:50:49;5.10;;;2.10;;
53521;SDS011;39398;48.382;9.802;2023-07-31T00:55:51;2.08;;;1.52;;
53521;SDS011;39398;48.382;9.802;2023-07-31T01:01:01;4.75;;;2.08;;
53521;SDS011;39398;48.382;9.802;2023-07-31T01:06:06;2.38;;;1.77;;
53521;SDS011;39398;48.382;9.802;2023-07-31T01:11:11;2.13;;;1.58;;
53521;SDS011;39398;48.382;9.802;2023-07-31T01:16:15;2.85;;;1.70;;
53521;SDS011;39398;48.382;9.802;2023-07-31T01:21:21;5.50;;;2.08;;
53521;SDS011;39398;48.382;9.802;2023-07-31T01:26:26;3.67;;;2.10;;
53521;SDS011;39398;48.382;9.802;2023-07-31T01:31:29;4.38;;;1.67;;
53521;SDS011;39398;48.382;9.802;2023-07-31T01:36:31;6.53;;;1.80;;
53521;SDS011;39398;48.382;9.802;2023-07-31T01:41:34;5.07;;;1.70;;
53521;SDS011;39398;48.382;9.802;2023-07-31T01:46:35;4.25;;;2.10;;
53521;SDS011;39398;48.382;9.802;2023-07-31T01:51:37;4.60;;;1.63;;
53521;SDS011;39398;48.382;9.802;2023-07-31T01:56:40;4.55;;;1.77;;
53521;SDS011;39398;48.382;9.802;2023-07-31T02:01:42;3.03;;;1.92;;
53521;SDS011;39398;48.382;9.802;2023-07-31T02:06:43;3.30;;;1.90;;
53521;SDS011;39398;48.382;9.802;2023-07-31T02:11:46;6.25;;;1.85;;
53521;SDS011;39398;48.382;9.802;2023-07-31T02:16:47;4.20;;;1.88;;
53521;SDS011;39398;48.382;9.802;2023-07-31T02:21:49;2.28;;;1.80;;
53521;SDS011;39398;48.382;9.802;2023-07-31T02:26:52;3.45;;;1.80;;
53521;SDS011;39398;48.382;9.802;2023-07-31T02:31:53;3.20;;;1.80;;
53521;SDS011;39398;48.382;9.802;2023-07-31T02:36:54;4.05;;;2.08;;
53521;SDS011;39398;48.382;9.802;2023-07-31T02:41:57;4.00;;;1.95;;
53521;SDS011;39398;48.382;9.802;2023-07-31T02:46:59;4.90;;;2.17;;
53521;SDS011;39398;48.382;9.802;2023-07-31T02:52:00;5.25;;;1.90;;
53521;SDS011;39398;48.382;9.802;2023-07-31T02:57:03;3.90;;;1.75;;
53521;SDS011;39398;48.382;9.802;2023-07-31T03:02:05;4.43;;;1.90;;
53521;SDS011;39398;48.382;9.802;2023-07-31T03:07:06;3.47;;;1.73;;
53521;SDS011;39398;48.382;9.802;2023-07-31T03:12:09;3.70;;;1.67;;
53521;SDS011;39398;48.382;9.802;2023-07-31T03:17:11;4.60;;;2.00;;
53521;SDS011;39398;48.382;9.802;2023-07-31T03:22:12;3.63;;;1.80;;
53521;SDS011;39398;48.382;9.802;2023-07-31T03:27:15;4.75;;;2.00;;
53521;SDS011;39398;48.382;9.802;2023-07-31T03:32:16;4.13;;;2.13;;
53521;SDS011;39398;48.382;9.802;2023-07-31T03:37:18;4.60;;;1.70;;
53521;SDS011;39398;48.382;9.802;2023-07-31T03:42:20;5.18;;;2.20;;
53521;SDS011;39398;48.382;9.802;2023-07-31T03:47:22;3.65;;;1.98;;
53521;SDS011;39398;48.382;9.802;2023-07-31T03:52:23;7.43;;;1.95;;
53521;SDS011;39398;48.382;9.802;2023-07-31T03:57:26;2.53;;;1.80;;
53521;SDS011;39398;48.382;9.802;2023-07-31T04:02:27;4.40;;;1.70;;
53521;SDS011;39398;48.382;9.802;2023-07-31T04:07:29;4.95;;;2.03;;
53521;SDS011;39398;48.382;9.802;2023-07-31T04:12:31;4.03;;;2.28;;
53521;SDS011;39398;48.382;9.802;2023-07-31T04:17:33;3.25;;;2.33;;
53521;SDS011;39398;48.382;9.802;2023-07-31T04:22:34;5.22;;;2.33;;
53521;SDS011;39398;48.382;9.802;2023-07-31T04:27:37;4.18;;;2.13;;
53521;SDS011;39398;48.382;9.802;2023-07-31T04:32:39;6.65;;;2.20;;
53521;SDS011;39398;48.382;9.802;2023-07-31T04:37:41;6.20;;;2.33;;
53521;SDS011;39398;48.382;9.802;2023-07-31T04:42:44;4.22;;;2.10;;
53521;SDS011;39398;48.382;9.802;2023-07-31T04:47:45;5.15;;;1.90;;
53521;SDS011;39398;48.382;9.802;2023-07-31T04:52:47;5.70;;;2.13;;
53521;SDS011;39398;48.382;9.802;2023-07-31T04:57:49;4.75;;;2.03;;
53521;SDS011;39398;48.382;9.802;2023-07-31T05:02:51;4.30;;;2.05;;
53521;SDS011;39398;48.382;9.802;2023-07-31T05:07:52;4.13;;;1.70;;
53521;SDS011;39398;48.382;9.802;2023-07-31T05:12:55;2.40;;;1.70;;
53521;SDS011;39398;48.382;9.802;2023-07-31T05:17:56;2.58;;;1.83;;
53521;SDS011;39398;48.382;9.802;2023-07-31T05:22:58;5.47;;;1.92;;
53521;SDS011;39398;48.382;9.802;2023-07-31T05:28:01;8.52;;;2.20;;
53521;SDS011;39398;48.382;9.802;2023-07-31T05:33:02;3.20;;;1.90;;
53521;SDS011;39398;48.382;9.802;2023-07-31T05:38:04;9.10;;;2.28;;
53521;SDS011;39398;48.382;9.802;2023-07-31T05:43:07;4.35;;;2.00;;
53521;SDS011;39398;48.382;9.802;2023-07-31T05:48:08;5.95;;;2.03;;
53521;SDS011;39398;48.382;9.802;2023-07-31T05:53:10;3.38;;;1.98;;
53521;SDS011;39398;48.382;9.802;2023-07-31T05:58:12;4.22;;;2.35;;
53521;SDS011;39398;48.382;9.802;2023-07-31T06:03:14;5.32;;;2.30;;
53521;SDS011;39398;48.382;9.802;2023-07-31T06:08:15;3.95;;;2.00;;
53521;SDS011;39398;48.382;9.802;2023-07-31T06:13:18;5.18;;;1.80;;
53521;SDS011;39398;48.382;9.802;2023-07-31T06:18:20;6.97;;;2.40;;
53521;SDS011;39398;48.382;9.802;2023-07-31T06:23:21;4.88;;;2.25;;
53521;SDS011;39398;48.382;9.802;2023-07-31T06:28:28;2.88;;;2.03;;
53521;SDS011;39398;48.382;9.802;2023-07-31T06:33:29;3.55;;;1.80;;
53521;SDS011;39398;48.382;9.802;2023-07-31T06:38:31;4.50;;;2.00;;
53521;SDS011;39398;48.382;9.802;2023-07-31T06:43:33;3.85;;;1.98;;
53521;SDS011;39398;48.382;9.802;2023-07-31T06:48:35;2.85;;;1.77;;
53521;SDS011;39398;48.382;9.802;2023-07-31T06:53:36;2.88;;;1.77;;
53521;SDS011;39398;48.382;9.802;2023-07-31T06:58:39;4.30;;;2.00;;
53521;SDS011;39398;48.382;9.802;2023-07-31T07:03:40;3.50;;;1.67;;
53521;SDS011;39398;48.382;9.802;2023-07-31T07:08:42;3.33;;;1.98;;
53521;SDS011;39398;48.382;9.802;2023-07-31T07:13:44;4.60;;;2.05;;
53521;SDS011;39398;48.382;9.802;2023-07-31T07:18:46;4.50;;;2.15;;
53521;SDS011;39398;48.382;9.802;2023-07-31T07:29:06;5.57;;;1.90;;
53521;SDS011;39398;48.382;9.802;2023-07-31T07:34:08;3.30;;;1.92;;
53521;SDS011;39398;48.382;9.802;2023-07-31T07:39:09;5.97;;;1.77;;
53521;SDS011;39398;48.382;9.802;2023-07-31T07:44:12;4.45;;;1.88;;
53521;SDS011;39398;48.382;9.802;2023-07-31T07:49:14;6.00;;;1.65;;
53521;SDS011;39398;48.382;9.802;2023-07-31T07:54:15;3.28;;;1.88;;
53521;SDS011;39398;48.382;9.802;2023-07-31T07:59:18;4.20;;;1.90;;
53521;SDS011;39398;48.382;9.802;2023-07-31T08:04:19;2.65;;;1.70;;
53521;SDS011;39398;48.382;9.802;2023-07-31T08:09:21;3.17;;;1.70;;
53521;SDS011;39398;48.382;9.802;2023-07-31T08:14:24;6.43;;;1.75;;
53521;SDS011;39398;48.382;9.802;2023-07-31T08:19:25;3.42;;;1.73;;
53521;SDS011;39398;48.382;9.802;2023-07-31T08:24:26;3.33;;;1.80;;
53521;SDS011;39398;48.382;9.802;2023-07-31T08:29:29;3.50;;;1.70;;
53521;SDS011;39398;48.382;9.802;2023-07-31T08:34:31;4.00;;;1.70;;
53521;SDS011;39398;48.382;9.802;2023-07-31T08:39:32;4.32;;;2.15;;
53521;SDS011;39398;48.382;9.802;2023-07-31T08:44:35;5.72;;;2.20;;
53521;SDS011;39398;48.382;9.802;2023-07-31T08:49:37;4.50;;;1.75;;
53521;SDS011;39398;48.382;9.802;2023-07-31T08:54:39;5.30;;;1.95;;
53521;SDS011;39398;48.382;9.802;2023-07-31T08:59:42;6.05;;;2.28;;
53521;SDS011;39398;48.382;9.802;2023-07-31T09:04:44;2.95;;;1.80;;
53521;SDS011;39398;48.382;9.802;2023-07-31T09:09:45;5.32;;;2.10;;
53521;SDS011;39398;48.382;9.802;2023-07-31T09:14:48;5.60;;;2.03;;
53521;SDS011;39398;48.382;9.802;2023-07-31T09:19:50;5.10;;;1.90;;
53521;SDS011;39398;48.382;9.802;2023-07-31T09:24:51;4.30;;;2.00;;
53521;SDS011;39398;48.382;9.802;2023-07-31T09:29:59;3.40;;;1.70;;
53521;SDS011;39398;48.382;9.802;2023-07-31T09:35:00;8.05;;;1.88;;
53521;SDS011;39398;48.382;9.802;2023-07-31T09:40:02;4.88;;;2.00;;
53521;SDS011;39398;48.382;9.802;2023-07-31T09:45:08;4.63;;;1.90;;
53521;SDS011;39398;48.382;9.802;2023-07-31T09:50:09;4.22;;;1.85;;
53521;SDS011;39398;48.382;9.802;2023-07-31T09:55:11;7.35;;;2.10;;
53521;SDS011;39398;48.382;9.802;2023-07-31T10:00:14;6.18;;;2.08;;
53521;SDS011;39398;48.382;9.802;2023-07-31T10:05:16;4.03;;;2.30;;
53521;SDS011;39398;48.382;9.802;2023-07-31T10:10:18;5.20;;;2.22;;
53521;SDS011;39398;48.382;9.802;2023-07-31T10:15:22;2.55;;;1.73;;
53521;SDS011;39398;48.382;9.802;2023-07-31T10:20:24;4.07;;;2.00;;
53521;SDS011;39398;48.382;9.802;2023-07-31T10:25:26;5.93;;;1.80;;
53521;SDS011;39398;48.382;9.802;2023-07-31T10:30:29;6.00;;;2.50;;
53521;SDS011;39398;48.382;9.802;2023-07-31T10:35:31;4.78;;;2.13;;
53521;SDS011;39398;48.382;9.802;2023-07-31T10:40:33;5.90;;;2.53;;
53521;SDS011;39398;48.382;9.802;2023-07-31T10:45:36;4.80;;;2.15;;
53521;SDS011;39398;48.382;9.802;2023-07-31T10:50:38;3.15;;;1.85;;
53521;SDS011;39398;48.382;9.802;2023-07-31T10:55:40;4.82;;;2.53;;
53521;SDS011;39398;48.382;9.802;2023-07-31T11:00:43;4.13;;;1.90;;
53521;SDS011;39398;48.382;9.802;2023-07-31T11:05:46;3.92;;;1.73;;
53521;SDS011;39398;48.382;9.802;2023-07-31T11:10:48;3.40;;;1.85;;
53521;SDS011;39398;48.382;9.802;2023-07-31T11:15:51;3.40;;;2.00;;
53521;SDS011;39398;48.382;9.802;2023-07-31T11:20:53;5.00;;;1.92;;
53521;SDS011;39398;48.382;9.802;2023-07-31T11:25:57;4.38;;;1.70;;
53521;SDS011;39398;48.382;9.802;2023-07-31T11:31:01;4.57;;;2.30;;
53521;SDS011;39398;48.382;9.802;2023-07-31T11:36:03;4.20;;;1.90;;
53521;SDS011;39398;48.382;9.802;2023-07-31T11:41:05;2.42;;;1.80;;
53521;SDS011;39398;48.382;9.802;2023-07-31T11:46:07;4.95;;;2.30;;
53521;SDS011;39398;48.382;9.802;2023-07-31T11:51:09;3.80;;;2.08;;
53521;SDS011;39398;48.382;9.802;2023-07-31T11:56:12;4.60;;;2.20;;
53521;SDS011;39398;48.382;9.802;2023-07-31T12:01:15;4.82;;;1.92;;
53521;SDS011;39398;48.382;9.802;2023-07-31T12:06:18;4.75;;;1.98;;
53521;SDS011;39398;48.382;9.802;2023-07-31T12:11:20;6.13;;;2.03;;
53521;SDS011;39398;48.382;9.802;2023-07-31T12:16:25;2.72;;;1.70;;
53521;SDS011;39398;48.382;9.802;2023-07-31T12:21:27;4.50;;;2.22;;
53521;SDS011;39398;48.382;9.802;2023-07-31T12:26:33;4.82;;;1.98;;
53521;SDS011;39398;48.382;9.802;2023-07-31T12:31:36;3.08;;;2.00;;
53521;SDS011;39398;48.382;9.802;2023-07-31T12:36:38;7.35;;;2.30;;
53521;SDS011;39398;48.382;9.802;2023-07-31T12:41:39;5.05;;;2.10;;
53521;SDS011;39398;48.382;9.802;2023-07-31T12:46:42;3.88;;;2.08;;
53521;SDS011;39398;48.382;9.802;2023-07-31T12:51:44;4.53;;;2.10;;
53521;SDS011;39398;48.382;9.802;2023-07-31T12:56:46;6.82;;;2.25;;
53521;SDS011;39398;48.382;9.802;2023-07-31T13:01:48;4.85;;;2.22;;
53521;SDS011;39398;48.382;9.802;2023-07-31T13:06:50;5.50;;;2.30;;
53521;SDS011;39398;48.382;9.802;2023-07-31T13:11:51;6.70;;;2.53;;
53521;SDS011;39398;48.382;9.802;2023-07-31T13:16:54;6.40;;;2.10;;
53521;SDS011;39398;48.382;9.802;2023-07-31T13:21:55;4.68;;;2.17;;
53521;SDS011;39398;48.382;9.802;2023-07-31T13:26:57;3.63;;;2.30;;
53521;SDS011;39398;48.382;9.802;2023-07-31T13:32:00;3.72;;;2.20;;
53521;SDS011;39398;48.382;9.802;2023-07-31T13:37:01;4.38;;;2.30;;
53521;SDS011;39398;48.382;9.802;2023-07-31T13:42:03;4.72;;;2.45;;
53521;SDS011;39398;48.382;9.802;2023-07-31T13:47:06;4.80;;;2.30;;
53521;SDS011;39398;48.382;9.802;2023-07-31T13:52:07;5.78;;;2.47;;
53521;SDS011;39398;48.382;9.802;2023-07-31T13:57:09;5.07;;;2.00;;
53521;SDS011;39398;48.382;9.802;2023-07-31T14:02:11;4.28;;;1.88;;
53521;SDS011;39398;48.382;9.802;2023-07-31T14:07:13;4.40;;;2.42;;
53521;SDS011;39398;48.382;9.802;2023-07-31T14:12:14;5.88;;;2.33;;
53521;SDS011;39398;48.382;9.802;2023-07-31T14:22:34;4.70;;;2.33;;
53521;SDS011;39398;48.382;9.802;2023-07-31T14:27:36;3.75;;;2.35;;
53521;SDS011;39398;48.382;9.802;2023-07-31T14:32:37;5.18;;;2.78;;
53521;SDS011;39398;48.382;9.802;2023-07-31T14:37:40;2.45;;;2.22;;
53521;SDS011;39398;48.382;9.802;2023-07-31T14:42:42;7.93;;;2.47;;
53521;SDS011;39398;48.382;9.802;2023-07-31T14:47:43;6.57;;;2.67;;
53521;SDS011;39398;48.382;9.802;2023-07-31T14:52:46;5.93;;;2.40;;
53521;SDS011;39398;48.382;9.802;2023-07-31T14:57:47;7.05;;;2.47;;
53521;SDS011;39398;48.382;9.802;2023-07-31T15:02:49;8.68;;;2.50;;
53521;SDS011;39398;48.382;9.802;2023-07-31T15:07:52;5.10;;;2.50;;
53521;SDS011;39398;48.382;9.802;2023-07-31T15:12:53;7.72;;;2.58;;
53521;SDS011;39398;48.382;9.802;2023-07-31T15:17:55;6.25;;;2.47;;
53521;SDS011;39398;48.382;9.802;2023-07-31T15:22:57;4.65;;;2.47;;
53521;SDS011;39398;48.382;9.802;2023-07-31T15:27:59;3.88;;;1.95;;
53521;SDS011;39398;48.382;9.802;2023-07-31T15:33:01;5.78;;;2.40;;
53521;SDS011;39398;48.382;9.802;2023-07-31T15:38:04;5.38;;;2.60;;
53521;SDS011;39398;48.382;9.802;2023-07-31T15:43:05;5.05;;;2.90;;
53521;SDS011;39398;48.382;9.802;2023-07-31T15:48:06;5.68;;;3.15;;
53521;SDS011;39398;48.382;9.802;2023-07-31T15:53:09;6.20;;;3.05;;
53521;SDS011;39398;48.382;9.802;2023-07-31T15:58:10;4.35;;;2.60;;
53521;SDS011;39398;48.382;9.802;2023-07-31T16:03:12;8.05;;;2.88;;
53521;SDS011;39398;48.382;9.802;2023-07-31T16:08:15;4.80;;;2.90;;
53521;SDS011;39398;48.382;9.802;2023-07-31T16:13:16;4.32;;;3.00;;
53521;SDS011;39398;48.382;9.802;2023-07-31T16:18:17;10.32;;;3.17;;
53521;SDS011;39398;48.382;9.802;2023-07-31T16:23:20;3.75;;;2.85;;
53521;SDS011;39398;48.382;9.802;2023-07-31T16:28:22;6.15;;;2.90;;
53521;SDS011;39398;48.382;9.802;2023-07-31T16:33:23;8.00;;;2.90;;
53521;SDS011;39398;48.382;9.802;2023-07-31T16:38:26;6.75;;;2.97;;
53521;SDS011;39398;48.382;9.802;2023-07-31T16:43:27;5.63;;;2.80;;
53521;SDS011;39398;48.382;9.802;2023-07-31T16:48:29;9.35;;;7.68;;
53521;SDS011;39398;48.382;9.802;2023-07-31T16:53:32;4.60;;;2.72;;
53521;SDS011;39398;48.382;9.802;2023-07-31T16:58:33;4.43;;;2.90;;
53521;SDS011;39398;48.382;9.802;2023-07-31T17:03:34;5.63;;;2.70;;
53521;SDS011;39398;48.382;9.802;2023-07-31T17:08:37;4.75;;;2.67;;
53521;SDS011;39398;48.382;9.802;2023-07-31T17:13:39;8.05;;;2.88;;
53521;SDS011;39398;48.382;9.802;2023-07-31T17:18:40;4.35;;;2.50;;
53521;SDS011;39398;48.382;9.802;2023-07-31T17:23:43;7.13;;;3.17;;
53521;SDS011;39398;48.382;9.802;2023-07-31T17:28:44;6.68;;;3.03;;
53521;SDS011;39398;48.382;9.802;2023-07-31T17:33:45;4.82;;;2.90;;
53521;SDS011;39398;48.382;9.802;2023-07-31T17:38:48;6.80;;;3.00;;
53521;SDS011;39398;48.382;9.802;2023-07-31T17:43:49;6.22;;;3.30;;
53521;SDS011;39398;48.382;9.802;2023-07-31T17:48:51;9.50;;;3.20;;
53521;SDS011;39398;48.382;9.802;2023-07-31T17:53:54;8.63;;;3.28;;
53521;SDS011;39398;48.382;9.802;2023-07-31T17:58:55;4.82;;;3.30;;
53521;SDS011;39398;48.382;9.802;2023-07-31T18:03:56;7.45;;;3.10;;
53521;SDS011;39398;48.382;9.802;2023-07-31T18:08:59;7.50;;;2.85;;
53521;SDS011;39398;48.382;9.802;2023-07-31T18:14:00;8.35;;;3.05;;
53521;SDS011;39398;48.382;9.802;2023-07-31T18:19:02;5.80;;;2.92;;
53521;SDS011;39398;48.382;9.802;2023-07-31T18:24:05;7.65;;;3.00;;
53521;SDS011;39398;48.382;9.802;2023-07-31T18:29:06;6.30;;;2.80;;
53521;SDS011;39398;48.382;9.802;2023-07-31T18:34:07;7.53;;;3.33;;
53521;SDS011;39398;48.382;9.802;2023-07-31T18:39:10;7.25;;;3.50;;
53521;SDS011;39398;48.382;9.802;2023-07-31T18:44:12;7.40;;;4.53;;
53521;SDS011;39398;48.382;9.802;2023-07-31T18:49:13;8.40;;;3.25;;
53521;SDS011;39398;48.382;9.802;2023-07-31T18:54:16;6.07;;;2.60;;
53521;SDS011;39398;48.382;9.802;2023-07-31T18:59:17;8.48;;;5.03;;
53521;SDS011;39398;48.382;9.802;2023-07-31T19:04:19;6.80;;;3.17;;
53521;SDS011;39398;48.382;9.802;2023-07-31T19:09:28;5.55;;;2.90;;
53521;SDS011;39398;48.382;9.802;2023-07-31T19:14:29;5.65;;;3.33;;
53521;SDS011;39398;48.382;9.802;2023-07-31T19:19:31;6.53;;;3.42;;
53521;SDS011;39398;48.382;9.802;2023-07-31T19:24:33;5.38;;;3.20;;
53521;SDS011;39398;48.382;9.802;2023-07-31T19:29:36;7.35;;;3.05;;
53521;SDS011;39398;48.382;9.802;2023-07-31T19:34:37;8.55;;;2.70;;
53521;SDS011;39398;48.382;9.802;2023-07-31T19:39:40;4.20;;;2.95;;
53521;SDS011;39398;48.382;9.802;2023-07-31T19:44:41;5.25;;;3.63;;
53521;SDS011;39398;48.382;9.802;2023-07-31T19:49:43;7.28;;;3.53;;
53521;SDS011;39398;48.382;9.802;2023-07-31T19:54:45;6.43;;;3.10;;
53521;SDS011;39398;48.382;9.802;2023-07-31T19:59:47;6.85;;;3.38;;
53521;SDS011;39398;48.382;9.802;2023-07-31T20:04:48;7.60;;;3.30;;
53521;SDS011;39398;48.382;9.802;2023-07-31T20:09:51;4.28;;;2.90;;
53521;SDS011;39398;48.382;9.802;2023-07-31T20:14:53;5.78;;;3.13;;
53521;SDS011;39398;48.382;9.802;2023-07-31T20:19:55;6.97;;;4.10;;
53521;SDS011;39398;48.382;9.802;2023-07-31T20:24:58;10.90;;;6.13;;
53521;SDS011;39398;48.382;9.802;2023-07-31T20:30:00;7.32;;;3.15;;
53521;SDS011;39398;48.382;9.802;2023-07-31T20:35:01;6.07;;;3.10;;
53521;SDS011;39398;48.382;9.802;2023-07-31T20:40:06;7.45;;;3.63;;
53521;SDS011;39398;48.382;9.802;2023-07-31T20:45:07;6.72;;;3.50;;
53521;SDS011;39398;48.382;9.802;2023-07-31T20:50:09;7.32;;;3.35;;
53521;SDS011;39398;48.382;9.802;2023-07-31T20:55:12;8.95;;;3.60;;
53521;SDS011;39398;48.382;9.802;2023-07-31T21:00:13;6.35;;;3.58;;
53521;SDS011;39398;48.382;9.802;2023-07-31T21:05:15;7.32;;;3.60;;
53521;SDS011;39398;48.382;9.802;2023-07-31T21:10:18;6.65;;;3.60;;
53521;SDS011;39398;48.382;9.802;2023-07-31T21:15:19;5.38;;;3.70;;
53521;SDS011;39398;48.382;9.802;2023-07-31T21:20:20;8.05;;;3.42;;
53521;SDS011;39398;48.382;9.802;2023-07-31T21:25:23;5.65;;;3.63;;
53521;SDS011;39398;48.382;9.802;2023-07-31T21:30:25;4.90;;;3.42;;
53521;SDS011;39398;48.382;9.802;2023-07-31T21:35:26;8.45;;;3.60;;
53521;SDS011;39398;48.382;9.802;2023-07-31T21:40:29;7.20;;;3.92;;
53521;SDS011;39398;48.382;9.802;2023-07-31T21:45:30;9.43;;;3.90;;
53521;SDS011;39398;48.382;9.802;2023-07-31T21:50:31;6.53;;;3.90;;
53521;SDS011;39398;48.382;9.802;2023-07-31T21:55:34;8.73;;;3.60;;
53521;SDS011;39398;48.382;9.802;2023-07-31T22:00:36;6.97;;;3.67;;
53521;SDS011;39398;48.382;9.802;2023-07-31T22:05:37;8.32;;;3.30;;
53521;SDS011;39398;48.382;9.802;2023-07-31T22:10:40;5.53;;;3.53;;
53521;SDS011;39398;48.382;9.802;2023-07-31T22:15:41;5.72;;;3.25;;
53521;SDS011;39398;48.382;9.802;2023-07-31T22:20:47;4.32;;;2.97;;
53521;SDS011;39398;48.382;9.802;2023-07-31T22:25:50;4.18;;;3.47;;
53521;SDS011;39398;48.382;9.802;2023-07-31T22:30:51;5.10;;;3.30;;
53521;SDS011;39398;48.382;9.802;2023-07-31T22:35:53;6.93;;;3.53;;
53521;SDS011;39398;48.382;9.802;2023-07-31T22:40:56;5.18;;;3.25;;
53521;SDS011;39398;48.382;9.802;2023-07-31T22:45:57;6.45;;;3.30;;
53521;SDS011;39398;48.382;9.802;2023-07-31T22:50:58;6.35;;;3.58;;
53521;SDS011;39398;48.382;9.802;2023-07-31T22:56:03;8.20;;;4.15;;
53521;SDS011;39398;48.382;9.802;2023-07-31T23:01:05;7.35;;;3.85;;
53521;SDS011;39398;48.382;9.802;2023-07-31T23:06:07;6.80;;;4.45;;
53521;SDS011;39398;48.382;9.802;2023-07-31T23:11:10;6.78;;;3.83;;
53521;SDS011;39398;48.382;9.802;2023-07-31T23:16:11;7.15;;;4.30;;
53521;SDS011;39398;48.382;9.802;2023-07-31T23:21:12;6.07;;;3.70;;
53521;SDS011;39398;48.382;9.802;2023-07-31T23:26:15;7.97;;;3.90;;
53521;SDS011;39398;48.382;9.802;2023-07-31T23:31:17;7.28;;;4.10;;
53521;SDS011;39398;48.382;9.802;2023-07-31T23:36:18;9.73;;;4.40;;
53521;SDS011;39398;48.382;9.802;2023-07-31T23:41:21;7.22;;;4.30;;
53521;SDS011;39398;48.382;9.802;2023-07-31T23:46:22;8.85;;;4.00;;
53521;SDS011;39398;48.382;9.802;2023-07-31T23:51:23;8.95;;;4.45;;
53521;SDS011;39398;48.382;9.802;2023-07-31T23:56:26;7.88;;;4.00;;
